sensor_id;sensor_type;location;lat;lon;timestamp;P1;durP1;ratioP1;P2;durP2;ratioP2
8050;SDS011;4068;42.158;24.732;2023-04-25T00:01:54;5.63;;;3.33;;
8050;SDS011;4068;42.158;24.732;2023-04-25T00:04:21;3.00;;;2.80;;
8050;SDS011;4068;42.158;24.732;2023-04-25T00:06:47;3.25;;;2.95;;
8050;SDS011;4068;42.158;24.732;2023-04-25T00:09:13;3.70;;;3.40;;
8050;SDS011;4068;42.158;24.732;2023-04-25T00:11:38;3.45;;;3.15;;
8050;SDS011;4068;42.158;24.732;2023-04-25T00:14:05;3.75;;;3.45;;
8050;SDS011;4068;42.158;24.732;2023-04-25T00:16:31;4.03;;;3.35;;
8050;SDS011;4068;42.158;24.732;2023-04-25T00:18:59;4.30;;;3.90;;
8050;SDS011;4068;42.158;24.732;2023-04-25T00:21:24;3.80;;;3.50;;
8050;SDS011;4068;42.158;24.732;2023-04-25T00:23:51;4.20;;;3.70;;
8050;SDS011;4068;42.158;24.732;2023-04-25T00:26:17;4.50;;;3.40;;
8050;SDS011;4068;42.158;24.732;2023-04-25T00:28:43;5.25;;;3.75;;
8050;SDS011;4068;42.158;24.732;2023-04-25T00:31:08;3.90;;;3.60;;
8050;SDS011;4068;42.158;24.732;2023-04-25T00:33:34;4.05;;;3.65;;
8050;SDS011;4068;42.158;24.732;2023-04-25T00:35:59;4.10;;;3.70;;
8050;SDS011;4068;42.158;24.732;2023-04-25T00:38:25;4.00;;;3.55;;
8050;SDS011;4068;42.158;24.732;2023-04-25T00:40:50;4.40;;;4.00;;
8050;SDS011;4068;42.158;24.732;2023-04-25T00:43:16;4.60;;;4.20;;
8050;SDS011;4068;42.158;24.732;2023-04-25T00:45:41;4.35;;;3.95;;
8050;SDS011;4068;42.158;24.732;2023-04-25T00:48:08;4.38;;;3.97;;
8050;SDS011;4068;42.158;24.732;2023-04-25T00:50:34;4.43;;;4.03;;
8050;SDS011;4068;42.158;24.732;2023-04-25T00:53:00;5.03;;;4.00;;
8050;SDS011;4068;42.158;24.732;2023-04-25T00:55:26;3.88;;;3.55;;
8050;SDS011;4068;42.158;24.732;2023-04-25T00:57:52;4.60;;;3.88;;
8050;SDS011;4068;42.158;24.732;2023-04-25T01:00:18;4.20;;;3.80;;
8050;SDS011;4068;42.158;24.732;2023-04-25T01:02:44;4.07;;;3.72;;
8050;SDS011;4068;42.158;24.732;2023-04-25T01:05:10;4.28;;;3.88;;
8050;SDS011;4068;42.158;24.732;2023-04-25T01:07:37;4.63;;;4.10;;
8050;SDS011;4068;42.158;24.732;2023-04-25T01:10:02;3.95;;;3.65;;
8050;SDS011;4068;42.158;24.732;2023-04-25T01:12:29;4.25;;;3.85;;
8050;SDS011;4068;42.158;24.732;2023-04-25T01:14:54;4.55;;;4.15;;
8050;SDS011;4068;42.158;24.732;2023-04-25T01:17:20;4.57;;;4.18;;
8050;SDS011;4068;42.158;24.732;2023-04-25T01:19:46;7.43;;;4.45;;
8050;SDS011;4068;42.158;24.732;2023-04-25T01:22:13;6.63;;;4.72;;
8050;SDS011;4068;42.158;24.732;2023-04-25T01:24:39;4.47;;;4.07;;
8050;SDS011;4068;42.158;24.732;2023-04-25T01:27:05;7.47;;;4.13;;
8050;SDS011;4068;42.158;24.732;2023-04-25T01:29:31;7.30;;;4.43;;
8050;SDS011;4068;42.158;24.732;2023-04-25T01:31:57;5.22;;;4.72;;
8050;SDS011;4068;42.158;24.732;2023-04-25T01:34:24;5.88;;;5.28;;
8050;SDS011;4068;42.158;24.732;2023-04-25T01:36:50;6.55;;;4.95;;
8050;SDS011;4068;42.158;24.732;2023-04-25T01:39:19;4.88;;;4.43;;
8050;SDS011;4068;42.158;24.732;2023-04-25T01:41:45;6.30;;;4.47;;
8050;SDS011;4068;42.158;24.732;2023-04-25T01:44:12;5.05;;;4.55;;
8050;SDS011;4068;42.158;24.732;2023-04-25T01:46:38;4.82;;;4.13;;
8050;SDS011;4068;42.158;24.732;2023-04-25T01:49:04;4.20;;;3.80;;
8050;SDS011;4068;42.158;24.732;2023-04-25T01:51:30;4.95;;;3.85;;
8050;SDS011;4068;42.158;24.732;2023-04-25T01:53:57;4.28;;;3.88;;
8050;SDS011;4068;42.158;24.732;2023-04-25T01:56:23;4.78;;;4.22;;
8050;SDS011;4068;42.158;24.732;2023-04-25T01:58:49;5.35;;;4.07;;
8050;SDS011;4068;42.158;24.732;2023-04-25T02:01:14;5.28;;;4.32;;
8050;SDS011;4068;42.158;24.732;2023-04-25T02:03:40;7.15;;;4.72;;
8050;SDS011;4068;42.158;24.732;2023-04-25T02:06:05;4.78;;;4.22;;
8050;SDS011;4068;42.158;24.732;2023-04-25T02:08:31;6.97;;;4.18;;
8050;SDS011;4068;42.158;24.732;2023-04-25T02:10:56;5.07;;;4.57;;
8050;SDS011;4068;42.158;24.732;2023-04-25T02:13:22;5.53;;;4.97;;
8050;SDS011;4068;42.158;24.732;2023-04-25T02:15:48;5.88;;;4.40;;
8050;SDS011;4068;42.158;24.732;2023-04-25T02:18:13;6.97;;;4.85;;
8050;SDS011;4068;42.158;24.732;2023-04-25T02:20:41;7.22;;;4.72;;
8050;SDS011;4068;42.158;24.732;2023-04-25T02:23:06;5.90;;;4.90;;
8050;SDS011;4068;42.158;24.732;2023-04-25T02:25:32;8.25;;;5.45;;
8050;SDS011;4068;42.158;24.732;2023-04-25T02:27:57;7.45;;;5.68;;
8050;SDS011;4068;42.158;24.732;2023-04-25T02:30:23;6.35;;;5.57;;
8050;SDS011;4068;42.158;24.732;2023-04-25T02:32:48;7.15;;;6.18;;
8050;SDS011;4068;42.158;24.732;2023-04-25T02:35:13;8.90;;;6.05;;
8050;SDS011;4068;42.158;24.732;2023-04-25T02:37:39;12.15;;;7.20;;
8050;SDS011;4068;42.158;24.732;2023-04-25T02:40:05;10.82;;;6.68;;
8050;SDS011;4068;42.158;24.732;2023-04-25T02:42:32;7.47;;;6.05;;
8050;SDS011;4068;42.158;24.732;2023-04-25T02:44:57;12.85;;;6.90;;
8050;SDS011;4068;42.158;24.732;2023-04-25T02:47:22;10.95;;;7.47;;
8050;SDS011;4068;42.158;24.732;2023-04-25T02:49:48;9.18;;;6.47;;
8050;SDS011;4068;42.158;24.732;2023-04-25T02:52:13;9.05;;;7.00;;
8050;SDS011;4068;42.158;24.732;2023-04-25T02:54:40;10.98;;;6.93;;
8050;SDS011;4068;42.158;24.732;2023-04-25T02:57:06;10.88;;;7.50;;
8050;SDS011;4068;42.158;24.732;2023-04-25T02:59:31;10.77;;;7.00;;
8050;SDS011;4068;42.158;24.732;2023-04-25T03:01:57;8.60;;;6.22;;
8050;SDS011;4068;42.158;24.732;2023-04-25T03:04:23;9.63;;;6.15;;
8050;SDS011;4068;42.158;24.732;2023-04-25T03:06:51;8.07;;;6.07;;
8050;SDS011;4068;42.158;24.732;2023-04-25T03:09:17;7.00;;;5.72;;
8050;SDS011;4068;42.158;24.732;2023-04-25T03:11:43;13.10;;;6.63;;
8050;SDS011;4068;42.158;24.732;2023-04-25T03:14:10;10.32;;;6.82;;
8050;SDS011;4068;42.158;24.732;2023-04-25T03:16:35;11.50;;;6.35;;
8050;SDS011;4068;42.158;24.732;2023-04-25T03:19:01;8.35;;;6.57;;
8050;SDS011;4068;42.158;24.732;2023-04-25T03:21:27;8.43;;;6.72;;
8050;SDS011;4068;42.158;24.732;2023-04-25T03:23:53;9.55;;;6.57;;
8050;SDS011;4068;42.158;24.732;2023-04-25T03:26:18;7.63;;;6.35;;
8050;SDS011;4068;42.158;24.732;2023-04-25T03:28:44;10.40;;;6.20;;
8050;SDS011;4068;42.158;24.732;2023-04-25T03:31:09;10.15;;;6.32;;
8050;SDS011;4068;42.158;24.732;2023-04-25T03:33:35;7.85;;;5.70;;
8050;SDS011;4068;42.158;24.732;2023-04-25T03:36:00;7.18;;;5.63;;
8050;SDS011;4068;42.158;24.732;2023-04-25T03:38:26;8.40;;;6.05;;
8050;SDS011;4068;42.158;24.732;2023-04-25T03:40:51;10.88;;;6.50;;
8050;SDS011;4068;42.158;24.732;2023-04-25T03:43:17;11.90;;;6.25;;
8050;SDS011;4068;42.158;24.732;2023-04-25T03:45:42;8.40;;;6.50;;
8050;SDS011;4068;42.158;24.732;2023-04-25T03:48:08;8.93;;;5.88;;
8050;SDS011;4068;42.158;24.732;2023-04-25T03:50:33;9.73;;;6.47;;
8050;SDS011;4068;42.158;24.732;2023-04-25T03:52:59;8.48;;;6.57;;
8050;SDS011;4068;42.158;24.732;2023-04-25T03:55:24;7.50;;;6.18;;
8050;SDS011;4068;42.158;24.732;2023-04-25T03:57:49;9.35;;;7.85;;
8050;SDS011;4068;42.158;24.732;2023-04-25T04:00:15;11.02;;;7.47;;
8050;SDS011;4068;42.158;24.732;2023-04-25T04:02:40;10.70;;;7.63;;
8050;SDS011;4068;42.158;24.732;2023-04-25T04:05:06;10.40;;;7.72;;
8050;SDS011;4068;42.158;24.732;2023-04-25T04:07:32;11.15;;;7.70;;
8050;SDS011;4068;42.158;24.732;2023-04-25T04:09:58;12.85;;;7.60;;
8050;SDS011;4068;42.158;24.732;2023-04-25T04:12:24;12.02;;;7.68;;
8050;SDS011;4068;42.158;24.732;2023-04-25T04:14:49;11.75;;;7.60;;
8050;SDS011;4068;42.158;24.732;2023-04-25T04:17:15;12.20;;;7.97;;
8050;SDS011;4068;42.158;24.732;2023-04-25T04:19:40;16.77;;;7.95;;
8050;SDS011;4068;42.158;24.732;2023-04-25T04:22:06;10.57;;;7.75;;
8050;SDS011;4068;42.158;24.732;2023-04-25T04:24:32;12.00;;;7.85;;
8050;SDS011;4068;42.158;24.732;2023-04-25T04:26:57;10.73;;;7.75;;
8050;SDS011;4068;42.158;24.732;2023-04-25T04:29:24;11.40;;;8.00;;
8050;SDS011;4068;42.158;24.732;2023-04-25T04:31:49;11.63;;;8.25;;
8050;SDS011;4068;42.158;24.732;2023-04-25T04:34:17;19.40;;;10.65;;
8050;SDS011;4068;42.158;24.732;2023-04-25T04:36:43;14.43;;;9.18;;
8050;SDS011;4068;42.158;24.732;2023-04-25T04:39:11;16.92;;;8.13;;
8050;SDS011;4068;42.158;24.732;2023-04-25T04:41:37;11.85;;;7.95;;
8050;SDS011;4068;42.158;24.732;2023-04-25T04:44:02;11.40;;;7.47;;
8050;SDS011;4068;42.158;24.732;2023-04-25T04:46:28;9.85;;;6.38;;
8050;SDS011;4068;42.158;24.732;2023-04-25T04:48:53;10.13;;;5.40;;
8050;SDS011;4068;42.158;24.732;2023-04-25T04:51:19;17.98;;;6.10;;
8050;SDS011;4068;42.158;24.732;2023-04-25T04:53:45;9.60;;;6.53;;
8050;SDS011;4068;42.158;24.732;2023-04-25T04:56:11;12.48;;;6.45;;
8050;SDS011;4068;42.158;24.732;2023-04-25T04:58:36;15.43;;;6.72;;
8050;SDS011;4068;42.158;24.732;2023-04-25T05:01:02;11.07;;;6.28;;
8050;SDS011;4068;42.158;24.732;2023-04-25T05:03:28;17.65;;;5.68;;
8050;SDS011;4068;42.158;24.732;2023-04-25T05:05:53;7.53;;;5.72;;
8050;SDS011;4068;42.158;24.732;2023-04-25T05:08:18;8.05;;;6.40;;
8050;SDS011;4068;42.158;24.732;2023-04-25T05:10:44;14.88;;;6.68;;
8050;SDS011;4068;42.158;24.732;2023-04-25T05:13:09;6.82;;;5.70;;
8050;SDS011;4068;42.158;24.732;2023-04-25T05:15:35;7.28;;;5.63;;
8050;SDS011;4068;42.158;24.732;2023-04-25T05:18:02;13.27;;;6.40;;
8050;SDS011;4068;42.158;24.732;2023-04-25T05:20:27;14.93;;;7.03;;
8050;SDS011;4068;42.158;24.732;2023-04-25T05:22:52;16.60;;;6.90;;
8050;SDS011;4068;42.158;24.732;2023-04-25T05:25:18;12.95;;;7.10;;
8050;SDS011;4068;42.158;24.732;2023-04-25T05:27:43;13.07;;;7.00;;
8050;SDS011;4068;42.158;24.732;2023-04-25T05:30:09;10.27;;;7.07;;
8050;SDS011;4068;42.158;24.732;2023-04-25T05:32:35;10.70;;;7.95;;
8050;SDS011;4068;42.158;24.732;2023-04-25T05:35:00;9.45;;;6.38;;
8050;SDS011;4068;42.158;24.732;2023-04-25T05:37:26;16.98;;;7.18;;
8050;SDS011;4068;42.158;24.732;2023-04-25T05:39:51;13.55;;;6.57;;
8050;SDS011;4068;42.158;24.732;2023-04-25T05:42:18;8.38;;;6.47;;
8050;SDS011;4068;42.158;24.732;2023-04-25T05:44:44;10.50;;;6.88;;
8050;SDS011;4068;42.158;24.732;2023-04-25T05:47:09;12.57;;;7.15;;
8050;SDS011;4068;42.158;24.732;2023-04-25T05:49:35;13.13;;;7.05;;
8050;SDS011;4068;42.158;24.732;2023-04-25T05:52:00;14.30;;;6.63;;
8050;SDS011;4068;42.158;24.732;2023-04-25T05:54:26;12.70;;;6.20;;
8050;SDS011;4068;42.158;24.732;2023-04-25T05:56:51;19.30;;;7.53;;
8050;SDS011;4068;42.158;24.732;2023-04-25T05:59:17;9.70;;;6.97;;
8050;SDS011;4068;42.158;24.732;2023-04-25T06:01:42;12.05;;;7.10;;
8050;SDS011;4068;42.158;24.732;2023-04-25T06:04:07;7.75;;;5.80;;
8050;SDS011;4068;42.158;24.732;2023-04-25T06:06:33;7.80;;;5.45;;
8050;SDS011;4068;42.158;24.732;2023-04-25T06:08:58;10.63;;;6.70;;
8050;SDS011;4068;42.158;24.732;2023-04-25T06:11:24;13.73;;;6.30;;
8050;SDS011;4068;42.158;24.732;2023-04-25T06:13:49;13.40;;;6.97;;
8050;SDS011;4068;42.158;24.732;2023-04-25T06:16:15;14.30;;;6.93;;
8050;SDS011;4068;42.158;24.732;2023-04-25T06:18:40;13.07;;;7.50;;
8050;SDS011;4068;42.158;24.732;2023-04-25T06:21:05;14.55;;;6.88;;
8050;SDS011;4068;42.158;24.732;2023-04-25T06:23:31;13.02;;;7.90;;
8050;SDS011;4068;42.158;24.732;2023-04-25T06:25:57;11.88;;;7.13;;
8050;SDS011;4068;42.158;24.732;2023-04-25T06:28:22;6.50;;;5.72;;
8050;SDS011;4068;42.158;24.732;2023-04-25T06:30:49;8.50;;;5.68;;
8050;SDS011;4068;42.158;24.732;2023-04-25T06:33:15;7.50;;;5.28;;
8050;SDS011;4068;42.158;24.732;2023-04-25T06:35:40;13.82;;;6.57;;
8050;SDS011;4068;42.158;24.732;2023-04-25T06:38:06;12.50;;;6.80;;
8050;SDS011;4068;42.158;24.732;2023-04-25T06:40:31;10.07;;;6.80;;
8050;SDS011;4068;42.158;24.732;2023-04-25T06:42:56;11.35;;;6.70;;
8050;SDS011;4068;42.158;24.732;2023-04-25T06:45:22;10.07;;;6.93;;
8050;SDS011;4068;42.158;24.732;2023-04-25T06:47:47;23.83;;;9.10;;
8050;SDS011;4068;42.158;24.732;2023-04-25T06:50:13;16.40;;;8.63;;
8050;SDS011;4068;42.158;24.732;2023-04-25T06:52:38;8.98;;;7.00;;
8050;SDS011;4068;42.158;24.732;2023-04-25T06:55:04;13.35;;;7.25;;
8050;SDS011;4068;42.158;24.732;2023-04-25T06:57:30;10.35;;;6.65;;
8050;SDS011;4068;42.158;24.732;2023-04-25T06:59:56;12.23;;;6.82;;
8050;SDS011;4068;42.158;24.732;2023-04-25T07:02:21;11.95;;;6.55;;
8050;SDS011;4068;42.158;24.732;2023-04-25T07:04:47;10.27;;;6.68;;
8050;SDS011;4068;42.158;24.732;2023-04-25T07:07:12;11.07;;;6.78;;
8050;SDS011;4068;42.158;24.732;2023-04-25T07:09:38;17.83;;;7.10;;
8050;SDS011;4068;42.158;24.732;2023-04-25T07:12:04;9.75;;;6.75;;
8050;SDS011;4068;42.158;24.732;2023-04-25T07:14:29;10.70;;;6.68;;
8050;SDS011;4068;42.158;24.732;2023-04-25T07:16:55;12.75;;;6.90;;
8050;SDS011;4068;42.158;24.732;2023-04-25T07:19:21;12.25;;;6.60;;
8050;SDS011;4068;42.158;24.732;2023-04-25T07:21:49;10.40;;;6.40;;
8050;SDS011;4068;42.158;24.732;2023-04-25T07:24:14;10.70;;;6.80;;
8050;SDS011;4068;42.158;24.732;2023-04-25T07:26:39;11.23;;;6.70;;
8050;SDS011;4068;42.158;24.732;2023-04-25T07:29:05;9.90;;;5.97;;
8050;SDS011;4068;42.158;24.732;2023-04-25T07:31:30;13.75;;;6.60;;
8050;SDS011;4068;42.158;24.732;2023-04-25T07:33:56;10.30;;;5.65;;
8050;SDS011;4068;42.158;24.732;2023-04-25T07:36:21;8.52;;;5.78;;
8050;SDS011;4068;42.158;24.732;2023-04-25T07:38:46;6.03;;;5.05;;
8050;SDS011;4068;42.158;24.732;2023-04-25T07:41:12;8.82;;;5.75;;
8050;SDS011;4068;42.158;24.732;2023-04-25T07:43:37;7.45;;;5.25;;
8050;SDS011;4068;42.158;24.732;2023-04-25T07:46:03;10.10;;;5.20;;
8050;SDS011;4068;42.158;24.732;2023-04-25T07:48:29;6.80;;;5.30;;
8050;SDS011;4068;42.158;24.732;2023-04-25T07:50:54;12.32;;;5.53;;
8050;SDS011;4068;42.158;24.732;2023-04-25T07:53:19;10.13;;;5.30;;
8050;SDS011;4068;42.158;24.732;2023-04-25T07:55:45;7.63;;;5.70;;
8050;SDS011;4068;42.158;24.732;2023-04-25T07:58:10;9.75;;;4.97;;
8050;SDS011;4068;42.158;24.732;2023-04-25T08:00:36;6.90;;;4.43;;
8050;SDS011;4068;42.158;24.732;2023-04-25T08:03:01;6.95;;;4.15;;
8050;SDS011;4068;42.158;24.732;2023-04-25T08:05:27;7.03;;;4.53;;
8050;SDS011;4068;42.158;24.732;2023-04-25T08:07:53;8.65;;;4.20;;
8050;SDS011;4068;42.158;24.732;2023-04-25T08:10:19;9.20;;;5.55;;
8050;SDS011;4068;42.158;24.732;2023-04-25T08:12:44;11.38;;;5.47;;
8050;SDS011;4068;42.158;24.732;2023-04-25T08:15:10;6.20;;;4.35;;
8050;SDS011;4068;42.158;24.732;2023-04-25T08:17:35;11.43;;;4.65;;
8050;SDS011;4068;42.158;24.732;2023-04-25T08:20:01;9.40;;;5.03;;
8050;SDS011;4068;42.158;24.732;2023-04-25T08:22:30;5.30;;;3.88;;
8050;SDS011;4068;42.158;24.732;2023-04-25T08:24:55;6.68;;;3.90;;
8050;SDS011;4068;42.158;24.732;2023-04-25T08:27:21;7.30;;;3.50;;
8050;SDS011;4068;42.158;24.732;2023-04-25T08:29:46;7.65;;;3.50;;
8050;SDS011;4068;42.158;24.732;2023-04-25T08:32:12;3.20;;;2.90;;
8050;SDS011;4068;42.158;24.732;2023-04-25T08:34:37;3.95;;;2.85;;
8050;SDS011;4068;42.158;24.732;2023-04-25T08:37:07;4.72;;;2.90;;
8050;SDS011;4068;42.158;24.732;2023-04-25T08:39:33;3.30;;;2.85;;
8050;SDS011;4068;42.158;24.732;2023-04-25T08:41:58;4.30;;;3.30;;
8050;SDS011;4068;42.158;24.732;2023-04-25T08:44:25;4.45;;;3.50;;
8050;SDS011;4068;42.158;24.732;2023-04-25T08:46:52;3.85;;;3.50;;
8050;SDS011;4068;42.158;24.732;2023-04-25T08:49:18;6.30;;;3.20;;
8050;SDS011;4068;42.158;24.732;2023-04-25T08:51:44;4.97;;;3.85;;
8050;SDS011;4068;42.158;24.732;2023-04-25T08:54:16;7.65;;;3.97;;
8050;SDS011;4068;42.158;24.732;2023-04-25T08:56:45;4.47;;;3.85;;
8050;SDS011;4068;42.158;24.732;2023-04-25T08:59:12;6.35;;;3.47;;
8050;SDS011;4068;42.158;24.732;2023-04-25T09:01:38;6.28;;;5.13;;
8050;SDS011;4068;42.158;24.732;2023-04-25T09:04:04;6.03;;;3.78;;
8050;SDS011;4068;42.158;24.732;2023-04-25T09:06:29;9.13;;;4.30;;
8050;SDS011;4068;42.158;24.732;2023-04-25T09:09:00;4.88;;;3.42;;
8050;SDS011;4068;42.158;24.732;2023-04-25T09:11:28;4.35;;;3.30;;
8050;SDS011;4068;42.158;24.732;2023-04-25T09:14:09;4.07;;;3.67;;
8050;SDS011;4068;42.158;24.732;2023-04-25T09:19:24;5.93;;;4.70;;
8050;SDS011;4068;42.158;24.732;2023-04-25T09:21:51;8.48;;;4.88;;
8050;SDS011;4068;42.158;24.732;2023-04-25T09:24:29;6.60;;;3.80;;
8050;SDS011;4068;42.158;24.732;2023-04-25T09:26:59;5.05;;;3.95;;
8050;SDS011;4068;42.158;24.732;2023-04-25T09:29:30;5.28;;;3.95;;
8050;SDS011;4068;42.158;24.732;2023-04-25T09:34:45;4.80;;;4.30;;
8050;SDS011;4068;42.158;24.732;2023-04-25T09:37:28;6.68;;;4.35;;
8050;SDS011;4068;42.158;24.732;2023-04-25T09:39:55;6.35;;;4.85;;
8050;SDS011;4068;42.158;24.732;2023-04-25T09:42:24;4.88;;;4.20;;
8050;SDS011;4068;42.158;24.732;2023-04-25T09:44:52;4.53;;;3.90;;
8050;SDS011;4068;42.158;24.732;2023-04-25T09:47:19;5.00;;;4.43;;
8050;SDS011;4068;42.158;24.732;2023-04-25T09:49:47;7.57;;;5.10;;
8050;SDS011;4068;42.158;24.732;2023-04-25T09:52:17;7.32;;;4.40;;
8050;SDS011;4068;42.158;24.732;2023-04-25T09:54:47;7.65;;;4.85;;
8050;SDS011;4068;42.158;24.732;2023-04-25T09:59:39;7.05;;;5.15;;
8050;SDS011;4068;42.158;24.732;2023-04-25T10:02:09;7.25;;;4.65;;
8050;SDS011;4068;42.158;24.732;2023-04-25T10:04:36;6.70;;;5.40;;
8050;SDS011;4068;42.158;24.732;2023-04-25T10:07:04;4.57;;;4.18;;
8050;SDS011;4068;42.158;24.732;2023-04-25T10:09:30;5.60;;;4.28;;
8050;SDS011;4068;42.158;24.732;2023-04-25T10:12:00;4.10;;;3.70;;
8050;SDS011;4068;42.158;24.732;2023-04-25T10:14:25;5.53;;;4.30;;
8050;SDS011;4068;42.158;24.732;2023-04-25T10:16:51;8.13;;;4.38;;
8050;SDS011;4068;42.158;24.732;2023-04-25T10:19:19;5.40;;;3.78;;
8050;SDS011;4068;42.158;24.732;2023-04-25T10:21:50;7.25;;;4.28;;
8050;SDS011;4068;42.158;24.732;2023-04-25T10:24:17;4.65;;;4.22;;
8050;SDS011;4068;42.158;24.732;2023-04-25T10:26:45;5.85;;;4.70;;
8050;SDS011;4068;42.158;24.732;2023-04-25T10:29:11;14.27;;;4.65;;
8050;SDS011;4068;42.158;24.732;2023-04-25T10:31:46;7.22;;;4.68;;
8050;SDS011;4068;42.158;24.732;2023-04-25T10:34:15;5.50;;;4.50;;
8050;SDS011;4068;42.158;24.732;2023-04-25T10:36:50;6.18;;;4.75;;
8050;SDS011;4068;42.158;24.732;2023-04-25T10:39:23;5.85;;;4.28;;
8050;SDS011;4068;42.158;24.732;2023-04-25T10:41:52;4.88;;;4.35;;
8050;SDS011;4068;42.158;24.732;2023-04-25T10:44:20;8.90;;;3.78;;
8050;SDS011;4068;42.158;24.732;2023-04-25T10:46:45;3.88;;;3.47;;
8050;SDS011;4068;42.158;24.732;2023-04-25T10:49:11;5.32;;;3.80;;
8050;SDS011;4068;42.158;24.732;2023-04-25T10:52:10;4.60;;;3.97;;
8050;SDS011;4068;42.158;24.732;2023-04-25T10:57:26;4.35;;;3.78;;
8050;SDS011;4068;42.158;24.732;2023-04-25T11:00:14;3.92;;;3.20;;
8050;SDS011;4068;42.158;24.732;2023-04-25T11:02:45;3.20;;;2.90;;
8050;SDS011;4068;42.158;24.732;2023-04-25T11:05:20;4.10;;;3.20;;
8050;SDS011;4068;42.158;24.732;2023-04-25T11:07:54;4.00;;;3.22;;
8050;SDS011;4068;42.158;24.732;2023-04-25T11:10:27;3.30;;;3.00;;
8050;SDS011;4068;42.158;24.732;2023-04-25T11:12:54;3.50;;;3.20;;
8050;SDS011;4068;42.158;24.732;2023-04-25T11:15:20;2.85;;;2.58;;
8050;SDS011;4068;42.158;24.732;2023-04-25T11:17:45;3.67;;;2.60;;
8050;SDS011;4068;42.158;24.732;2023-04-25T11:20:11;2.88;;;2.53;;
8050;SDS011;4068;42.158;24.732;2023-04-25T11:22:38;5.30;;;2.72;;
8050;SDS011;4068;42.158;24.732;2023-04-25T11:25:08;3.33;;;3.03;;
8050;SDS011;4068;42.158;24.732;2023-04-25T11:27:39;4.25;;;2.90;;
8050;SDS011;4068;42.158;24.732;2023-04-25T11:30:16;4.45;;;3.05;;
8050;SDS011;4068;42.158;24.732;2023-04-25T11:32:43;3.55;;;3.10;;
8050;SDS011;4068;42.158;24.732;2023-04-25T11:35:12;3.97;;;3.25;;
8050;SDS011;4068;42.158;24.732;2023-04-25T11:37:41;4.70;;;3.00;;
8050;SDS011;4068;42.158;24.732;2023-04-25T11:40:08;3.55;;;2.60;;
8050;SDS011;4068;42.158;24.732;2023-04-25T11:42:38;3.83;;;2.75;;
8050;SDS011;4068;42.158;24.732;2023-04-25T11:45:08;3.80;;;3.00;;
8050;SDS011;4068;42.158;24.732;2023-04-25T11:47:34;3.45;;;2.83;;
8050;SDS011;4068;42.158;24.732;2023-04-25T11:50:01;5.38;;;3.65;;
8050;SDS011;4068;42.158;24.732;2023-04-25T11:55:08;7.32;;;3.88;;
8050;SDS011;4068;42.158;24.732;2023-04-25T11:57:35;4.75;;;3.88;;
8050;SDS011;4068;42.158;24.732;2023-04-25T12:02:34;4.32;;;3.78;;
8050;SDS011;4068;42.158;24.732;2023-04-25T12:05:01;5.72;;;3.88;;
8050;SDS011;4068;42.158;24.732;2023-04-25T12:07:29;5.28;;;3.80;;
8050;SDS011;4068;42.158;24.732;2023-04-25T12:09:55;9.73;;;4.60;;
8050;SDS011;4068;42.158;24.732;2023-04-25T12:12:20;8.48;;;4.18;;
8050;SDS011;4068;42.158;24.732;2023-04-25T12:14:47;4.63;;;3.70;;
8050;SDS011;4068;42.158;24.732;2023-04-25T12:17:13;5.88;;;3.78;;
8050;SDS011;4068;42.158;24.732;2023-04-25T12:19:39;5.75;;;4.47;;
8050;SDS011;4068;42.158;24.732;2023-04-25T12:22:18;6.93;;;3.85;;
8050;SDS011;4068;42.158;24.732;2023-04-25T12:24:47;4.95;;;3.70;;
8050;SDS011;4068;42.158;24.732;2023-04-25T12:27:16;4.47;;;3.70;;
8050;SDS011;4068;42.158;24.732;2023-04-25T12:29:53;11.90;;;3.90;;
8050;SDS011;4068;42.158;24.732;2023-04-25T12:32:19;7.00;;;4.10;;
8050;SDS011;4068;42.158;24.732;2023-04-25T12:34:45;5.30;;;4.15;;
8050;SDS011;4068;42.158;24.732;2023-04-25T12:37:11;8.10;;;3.55;;
8050;SDS011;4068;42.158;24.732;2023-04-25T12:39:36;5.35;;;4.03;;
8050;SDS011;4068;42.158;24.732;2023-04-25T12:42:02;4.22;;;3.65;;
8050;SDS011;4068;42.158;24.732;2023-04-25T12:44:28;6.47;;;4.00;;
8050;SDS011;4068;42.158;24.732;2023-04-25T12:46:53;6.35;;;4.18;;
8050;SDS011;4068;42.158;24.732;2023-04-25T12:49:19;4.82;;;3.55;;
8050;SDS011;4068;42.158;24.732;2023-04-25T12:51:45;4.47;;;3.67;;
8050;SDS011;4068;42.158;24.732;2023-04-25T12:54:11;5.50;;;3.72;;
8050;SDS011;4068;42.158;24.732;2023-04-25T12:56:37;4.00;;;3.60;;
8050;SDS011;4068;42.158;24.732;2023-04-25T12:59:02;4.65;;;3.30;;
8050;SDS011;4068;42.158;24.732;2023-04-25T13:01:28;3.90;;;3.30;;
8050;SDS011;4068;42.158;24.732;2023-04-25T13:03:54;3.15;;;2.90;;
8050;SDS011;4068;42.158;24.732;2023-04-25T13:06:21;3.30;;;2.90;;
8050;SDS011;4068;42.158;24.732;2023-04-25T13:08:47;6.90;;;2.75;;
8050;SDS011;4068;42.158;24.732;2023-04-25T13:11:13;2.90;;;2.40;;
8050;SDS011;4068;42.158;24.732;2023-04-25T13:13:40;4.45;;;2.72;;
8050;SDS011;4068;42.158;24.732;2023-04-25T13:16:06;5.80;;;2.60;;
8050;SDS011;4068;42.158;24.732;2023-04-25T13:18:32;2.72;;;2.50;;
8050;SDS011;4068;42.158;24.732;2023-04-25T13:20:58;3.78;;;2.90;;
8050;SDS011;4068;42.158;24.732;2023-04-25T13:23:25;4.10;;;2.80;;
8050;SDS011;4068;42.158;24.732;2023-04-25T13:25:52;2.78;;;2.58;;
8050;SDS011;4068;42.158;24.732;2023-04-25T13:28:17;2.90;;;2.60;;
8050;SDS011;4068;42.158;24.732;2023-04-25T13:30:43;6.88;;;2.40;;
8050;SDS011;4068;42.158;24.732;2023-04-25T13:33:09;5.70;;;3.10;;
8050;SDS011;4068;42.158;24.732;2023-04-25T13:35:36;2.95;;;2.63;;
8050;SDS011;4068;42.158;24.732;2023-04-25T13:38:02;3.30;;;2.58;;
8050;SDS011;4068;42.158;24.732;2023-04-25T13:40:28;6.65;;;2.83;;
8050;SDS011;4068;42.158;24.732;2023-04-25T13:42:54;3.60;;;2.53;;
8050;SDS011;4068;42.158;24.732;2023-04-25T13:45:20;3.25;;;2.20;;
8050;SDS011;4068;42.158;24.732;2023-04-25T13:47:46;2.40;;;2.22;;
8050;SDS011;4068;42.158;24.732;2023-04-25T13:50:11;2.58;;;2.38;;
8050;SDS011;4068;42.158;24.732;2023-04-25T13:52:38;7.18;;;2.83;;
8050;SDS011;4068;42.158;24.732;2023-04-25T13:55:04;5.03;;;2.65;;
8050;SDS011;4068;42.158;24.732;2023-04-25T13:57:31;4.63;;;2.45;;
8050;SDS011;4068;42.158;24.732;2023-04-25T13:59:57;4.38;;;2.85;;
8050;SDS011;4068;42.158;24.732;2023-04-25T14:02:22;3.40;;;2.38;;
8050;SDS011;4068;42.158;24.732;2023-04-25T14:04:48;2.65;;;1.88;;
8050;SDS011;4068;42.158;24.732;2023-04-25T14:07:14;2.55;;;2.35;;
8050;SDS011;4068;42.158;24.732;2023-04-25T14:09:42;4.95;;;1.92;;
8050;SDS011;4068;42.158;24.732;2023-04-25T14:12:08;1.92;;;1.83;;
8050;SDS011;4068;42.158;24.732;2023-04-25T14:14:33;2.00;;;1.90;;
8050;SDS011;4068;42.158;24.732;2023-04-25T14:16:59;2.05;;;1.95;;
8050;SDS011;4068;42.158;24.732;2023-04-25T14:19:25;5.60;;;2.88;;
8050;SDS011;4068;42.158;24.732;2023-04-25T14:21:50;3.90;;;2.10;;
8050;SDS011;4068;42.158;24.732;2023-04-25T14:24:16;4.47;;;2.20;;
8050;SDS011;4068;42.158;24.732;2023-04-25T14:26:42;2.20;;;2.10;;
8050;SDS011;4068;42.158;24.732;2023-04-25T14:29:08;3.92;;;2.22;;
8050;SDS011;4068;42.158;24.732;2023-04-25T14:31:36;4.22;;;2.03;;
8050;SDS011;4068;42.158;24.732;2023-04-25T14:34:02;2.50;;;2.30;;
8050;SDS011;4068;42.158;24.732;2023-04-25T14:36:27;1.85;;;1.75;;
8050;SDS011;4068;42.158;24.732;2023-04-25T14:38:53;2.08;;;1.83;;
8050;SDS011;4068;42.158;24.732;2023-04-25T14:41:18;2.40;;;2.20;;
8050;SDS011;4068;42.158;24.732;2023-04-25T14:43:44;2.50;;;2.30;;
8050;SDS011;4068;42.158;24.732;2023-04-25T14:46:10;2.63;;;2.40;;
8050;SDS011;4068;42.158;24.732;2023-04-25T14:48:36;3.78;;;2.15;;
8050;SDS011;4068;42.158;24.732;2023-04-25T14:51:01;2.88;;;2.20;;
8050;SDS011;4068;42.158;24.732;2023-04-25T14:53:27;2.22;;;2.03;;
8050;SDS011;4068;42.158;24.732;2023-04-25T14:55:52;1.77;;;1.67;;
8050;SDS011;4068;42.158;24.732;2023-04-25T14:58:18;1.90;;;1.80;;
8050;SDS011;4068;42.158;24.732;2023-04-25T15:00:44;2.20;;;1.80;;
8050;SDS011;4068;42.158;24.732;2023-04-25T15:03:10;1.80;;;1.70;;
8050;SDS011;4068;42.158;24.732;2023-04-25T15:05:37;2.05;;;1.80;;
8050;SDS011;4068;42.158;24.732;2023-04-25T15:08:03;3.13;;;1.70;;
8050;SDS011;4068;42.158;24.732;2023-04-25T15:10:29;1.90;;;1.80;;